Time;durP1;ratioP1;P1;durP2;ratioP2;P2;SDS_P1;SDS_P2;PMS_P1;PMS_P2;Temp;Humidity;BMP_temperature;BMP_pressure;BME280_temperature;BME280_humidity;BME280_pressure;Samples;Min_cycle;Max_cycle;Signal;HPM_P1;HPM_P2
2022/09/30 00:01:51;;;;;;;10.60;4.10;;;;;;;;;;6302445;22;20023;-75
2022/09/30 00:04:24;;;;;;;6.35;3.75;;;;;;;;;;6303051;22;20023;-75
2022/09/30 00:06:52;;;;;;;8.73;3.65;;;;;;;;;;6302675;22;20563;-75
2022/09/30 00:09:20;;;;;;;11.98;3.97;;;;;;;;;;6276194;22;20519;-75
2022/09/30 00:11:54;;;;;;;6.55;3.72;;;;;;;;;;6302023;22;20027;-75
2022/09/30 00:14:22;;;;;;;9.93;3.45;;;;;;;;;;6301984;22;20114;-75
2022/09/30 00:16:56;;;;;;;5.75;3.78;;;;;;;;;;6302345;22;20037;-76
2022/09/30 00:19:23;;;;;;;6.40;3.45;;;;;;;;;;6301339;22;20404;-75
2022/09/30 00:21:51;;;;;;;7.45;4.10;;;;;;;;;;6302291;22;20030;-75
2022/09/30 00:24:31;;;;;;;6.80;3.60;;;;;;;;;;6300009;22;20030;-76
2022/09/30 00:27:05;;;;;;;7.45;3.95;;;;;;;;;;6301544;22;20035;-76
2022/09/30 00:29:39;;;;;;;6.60;4.30;;;;;;;;;;6301923;22;20094;-76
2022/09/30 00:32:06;;;;;;;5.43;3.63;;;;;;;;;;6301737;22;20023;-75
2022/09/30 00:34:40;;;;;;;7.97;3.70;;;;;;;;;;6300717;22;20138;-75
2022/09/30 00:37:10;;;;;;;8.15;3.53;;;;;;;;;;6302895;22;20352;-76
2022/09/30 00:39:37;;;;;;;6.70;4.05;;;;;;;;;;6301973;22;20347;-76
2022/09/30 00:42:13;;;;;;;8.38;4.38;;;;;;;;;;6301299;22;20536;-76
2022/09/30 00:44:43;;;;;;;6.65;4.15;;;;;;;;;;6274558;22;20019;-76
2022/09/30 00:47:27;;;;;;;9.90;4.63;;;;;;;;;;6301797;22;20023;-75
2022/09/30 00:49:55;;;;;;;9.48;5.22;;;;;;;;;;6302353;22;20046;-76
2022/09/30 00:52:36;;;;;;;13.45;5.93;;;;;;;;;;6302064;22;20478;-75
2022/09/30 00:55:07;;;;;;;10.75;6.10;;;;;;;;;;6301605;22;20101;-76
2022/09/30 00:57:40;;;;;;;13.30;5.60;;;;;;;;;;6302042;22;20183;-75
2022/09/30 01:00:08;;;;;;;10.55;5.22;;;;;;;;;;6301886;22;20034;-75
2022/09/30 01:02:41;;;;;;;10.05;5.43;;;;;;;;;;6301755;22;20330;-75
2022/09/30 01:05:08;;;;;;;12.40;5.20;;;;;;;;;;6301520;22;20102;-76
2022/09/30 01:07:36;;;;;;;12.13;5.15;;;;;;;;;;6301464;22;20110;-76
2022/09/30 01:10:09;;;;;;;7.80;3.88;;;;;;;;;;6301425;22;20019;-76
2022/09/30 01:12:36;;;;;;;9.02;3.88;;;;;;;;;;6301615;22;20360;-76
2022/09/30 01:15:10;;;;;;;10.07;4.32;;;;;;;;;;6302745;22;20127;-76
2022/09/30 01:17:56;;;;;;;11.13;4.90;;;;;;;;;;6302002;22;20023;-75
2022/09/30 01:20:43;;;;;;;4.47;3.25;;;;;;;;;;6302639;22;20019;-76
2022/09/30 01:23:36;;;;;;;7.05;3.70;;;;;;;;;;6302429;22;20020;-76
2022/09/30 01:26:30;;;;;;;6.43;4.15;;;;;;;;;;6270578;22;20046;-76
2022/09/30 01:29:21;;;;;;;8.95;4.53;;;;;;;;;;6269881;22;20023;-75
2022/09/30 01:31:49;;;;;;;7.45;3.90;;;;;;;;;;6270308;22;20027;-76
2022/09/30 01:34:37;;;;;;;10.68;4.55;;;;;;;;;;6270380;22;20016;-76
2022/09/30 01:37:13;;;;;;;8.80;4.03;;;;;;;;;;6271839;22;20041;-75
2022/09/30 01:40:04;;;;;;;9.55;4.38;;;;;;;;;;6271011;22;20416;-75
2022/09/30 01:42:31;;;;;;;7.25;4.50;;;;;;;;;;6269713;22;20490;-76
2022/09/30 01:45:06;;;;;;;9.93;5.53;;;;;;;;;;6270470;22;20102;-76
2022/09/30 01:47:34;;;;;;;6.80;3.97;;;;;;;;;;6271240;22;20032;-76
2022/09/30 01:50:18;;;;;;;15.00;5.32;;;;;;;;;;6270867;22;20061;-76
2022/09/30 01:52:52;;;;;;;10.20;4.55;;;;;;;;;;6271624;22;20066;-76
2022/09/30 01:55:35;;;;;;;9.98;4.95;;;;;;;;;;6270568;22;20481;-75
2022/09/30 01:58:02;;;;;;;16.10;5.40;;;;;;;;;;6270873;22;20026;-76
2022/09/30 02:00:38;;;;;;;10.35;4.55;;;;;;;;;;6271057;22;20349;-76
2022/09/30 02:03:17;;;;;;;10.93;5.18;;;;;;;;;;6269090;22;20020;-75
2022/09/30 02:06:14;;;;;;;10.82;4.57;;;;;;;;;;6269557;22;20050;-76
2022/09/30 02:08:42;;;;;;;6.88;4.18;;;;;;;;;;6262605;22;20034;-76
2022/09/30 02:11:17;;;;;;;11.00;4.82;;;;;;;;;;6268196;22;20102;-76
2022/09/30 02:13:50;;;;;;;8.57;3.90;;;;;;;;;;6268134;22;20353;-76
2022/09/30 02:16:38;;;;;;;11.00;4.70;;;;;;;;;;6269533;22;20094;-75
2022/09/30 02:19:10;;;;;;;10.13;4.78;;;;;;;;;;6269286;22;20107;-76
2022/09/30 02:21:46;;;;;;;11.52;4.90;;;;;;;;;;6269373;22;20475;-76
2022/09/30 02:24:24;;;;;;;11.35;5.00;;;;;;;;;;6275586;22;20099;-76
2022/09/30 02:27:08;;;;;;;9.55;4.13;;;;;;;;;;6301410;22;20026;-75
2022/09/30 02:29:37;;;;;;;11.45;4.47;;;;;;;;;;6302222;22;20045;-76
2022/09/30 02:32:41;;;;;;;14.55;4.28;;;;;;;;;;6300759;22;20122;-76
2022/09/30 02:35:10;;;;;;;9.68;5.00;;;;;;;;;;6281611;22;20023;-75
2022/09/30 02:37:49;;;;;;;9.68;5.03;;;;;;;;;;6300865;22;20054;-75
2022/09/30 02:40:21;;;;;;;10.15;4.72;;;;;;;;;;6300883;22;20097;-76
2022/09/30 02:42:55;;;;;;;8.02;4.82;;;;;;;;;;6301111;22;20547;-76
2022/09/30 02:45:23;;;;;;;10.48;4.82;;;;;;;;;;6301355;22;20098;-75
2022/09/30 02:47:57;;;;;;;9.82;4.72;;;;;;;;;;6301574;22;20395;-77
2022/09/30 02:50:40;;;;;;;8.65;4.57;;;;;;;;;;6302085;22;20478;-75
2022/09/30 02:53:07;;;;;;;8.45;4.57;;;;;;;;;;6302043;22;20019;-76
2022/09/30 02:55:59;;;;;;;9.60;3.58;;;;;;;;;;6301349;22;20530;-76
2022/09/30 02:58:28;;;;;;;5.78;3.63;;;;;;;;;;6303140;22;20100;-76
2022/09/30 03:01:02;;;;;;;10.32;4.35;;;;;;;;;;6303534;22;20057;-76
2022/09/30 03:03:40;;;;;;;8.43;4.45;;;;;;;;;;6303050;22;20094;-76
2022/09/30 03:06:13;;;;;;;9.05;4.65;;;;;;;;;;6304038;22;20025;-75
2022/09/30 03:08:41;;;;;;;9.98;5.30;;;;;;;;;;6303698;22;20097;-76
2022/09/30 03:11:16;;;;;;;9.73;4.82;;;;;;;;;;6276444;22;20520;-75
2022/09/30 03:13:58;;;;;;;9.40;5.05;;;;;;;;;;6303432;22;20019;-76
2022/09/30 03:16:32;;;;;;;10.77;5.10;;;;;;;;;;6303386;22;20023;-76
2022/09/30 03:19:30;;;;;;;9.10;4.60;;;;;;;;;;6303204;22;20092;-76
2022/09/30 03:22:04;;;;;;;8.68;5.22;;;;;;;;;;6287820;22;20698;-76
2022/09/30 03:25:02;;;;;;;8.20;4.70;;;;;;;;;;6300997;22;20030;-75
2022/09/30 03:27:51;;;;;;;9.07;4.70;;;;;;;;;;6303820;22;20020;-75
2022/09/30 03:30:26;;;;;;;9.65;4.75;;;;;;;;;;6302271;22;20062;-76
2022/09/30 03:33:10;;;;;;;9.60;4.38;;;;;;;;;;6302444;22;20026;-76
2022/09/30 03:35:47;;;;;;;9.18;4.65;;;;;;;;;;6302928;22;20070;-76
2022/09/30 03:38:22;;;;;;;10.23;4.38;;;;;;;;;;6303028;22;20031;-76
2022/09/30 03:41:07;;;;;;;13.85;5.30;;;;;;;;;;6302548;22;20547;-76
2022/09/30 03:43:34;;;;;;;10.02;4.95;;;;;;;;;;6275778;22;20030;-75
2022/09/30 03:46:17;;;;;;;8.15;4.55;;;;;;;;;;6303140;22;20058;-76
2022/09/30 03:48:46;;;;;;;8.20;4.30;;;;;;;;;;6303464;22;20033;-76
2022/09/30 03:51:20;;;;;;;6.88;4.30;;;;;;;;;;6304139;22;20034;-76
2022/09/30 03:53:47;;;;;;;7.60;4.05;;;;;;;;;;6276482;22;20015;-74
2022/09/30 03:56:30;;;;;;;9.52;4.30;;;;;;;;;;6303195;22;20351;-75
2022/09/30 03:58:58;;;;;;;8.52;4.22;;;;;;;;;;6302107;22;20094;-75
2022/09/30 04:01:31;;;;;;;8.35;4.38;;;;;;;;;;6303011;22;20109;-76
2022/09/30 04:03:58;;;;;;;8.25;4.18;;;;;;;;;;6303826;22;20046;-76
2022/09/30 04:06:26;;;;;;;8.63;3.92;;;;;;;;;;6303662;22;20109;-76
2022/09/30 04:08:59;;;;;;;9.43;4.10;;;;;;;;;;6301970;22;20019;-75
2022/09/30 04:11:27;;;;;;;7.78;3.83;;;;;;;;;;6276291;22;20460;-76
2022/09/30 04:13:54;;;;;;;12.52;4.63;;;;;;;;;;6303204;22;20022;-74
2022/09/30 04:16:29;;;;;;;9.05;4.30;;;;;;;;;;6273508;22;20033;-76
2022/09/30 04:19:11;;;;;;;13.02;4.90;;;;;;;;;;6303252;22;20027;-76
2022/09/30 04:21:52;;;;;;;10.93;4.75;;;;;;;;;;6301844;22;20023;-76
2022/09/30 04:24:30;;;;;;;7.07;3.97;;;;;;;;;;6299323;22;20024;-76
2022/09/30 04:27:11;;;;;;;6.05;4.05;;;;;;;;;;6301886;22;20125;-76
2022/09/30 04:29:45;;;;;;;14.23;5.47;;;;;;;;;;6275705;22;20027;-76
2022/09/30 04:32:21;;;;;;;21.95;5.15;;;;;;;;;;6300790;22;20015;-76
2022/09/30 04:34:48;;;;;;;11.27;5.60;;;;;;;;;;6301178;22;20019;-76
2022/09/30 04:37:15;;;;;;;7.43;4.88;;;;;;;;;;6302719;22;20098;-75
2022/09/30 04:39:49;;;;;;;17.40;5.70;;;;;;;;;;6301772;22;20015;-76
2022/09/30 04:42:17;;;;;;;13.88;5.82;;;;;;;;;;6301813;22;20102;-75
2022/09/30 04:44:50;;;;;;;13.88;6.20;;;;;;;;;;6302552;22;20098;-75
2022/09/30 04:47:18;;;;;;;10.80;5.50;;;;;;;;;;6301480;22;20304;-76
2022/09/30 04:49:45;;;;;;;10.10;5.25;;;;;;;;;;6302349;22;20106;-75
2022/09/30 04:52:19;;;;;;;11.45;5.70;;;;;;;;;;6302805;22;20019;-76
2022/09/30 04:54:46;;;;;;;9.85;4.75;;;;;;;;;;6301502;22;20027;-76
2022/09/30 04:57:20;;;;;;;14.90;5.28;;;;;;;;;;6302738;22;20019;-76
2022/09/30 04:59:49;;;;;;;13.57;5.28;;;;;;;;;;6303469;22;20533;-76
2022/09/30 05:02:16;;;;;;;9.48;5.25;;;;;;;;;;6302575;22;20460;-76
2022/09/30 05:04:51;;;;;;;13.38;6.03;;;;;;;;;;6302890;22;20395;-76
2022/09/30 05:07:18;;;;;;;10.63;4.82;;;;;;;;;;6301929;22;20023;-76
2022/09/30 05:09:52;;;;;;;8.88;5.10;;;;;;;;;;6302774;22;20029;-76
2022/09/30 05:12:19;;;;;;;6.70;4.07;;;;;;;;;;6276485;22;20535;-76
2022/09/30 05:14:46;;;;;;;10.02;4.45;;;;;;;;;;6302902;22;20023;-76
2022/09/30 05:17:21;;;;;;;36.75;5.75;;;;;;;;;;6302458;22;20019;-76
2022/09/30 05:19:48;;;;;;;;;;;;;;;;;;6303861;22;20098;-76
2022/09/30 05:22:23;;;;;;;79.15;6.50;;;;;;;;;;6303192;22;19934;-77
2022/09/30 05:24:57;;;;;;;57.97;6.70;;;;;;;;;;6301248;22;20054;-75
2022/09/30 05:27:38;;;;;;;118.65;9.32;;;;;;;;;;6277793;22;20464;-76
2022/09/30 05:30:05;;;;;;;158.80;12.50;;;;;;;;;;6301772;22;20118;-76
2022/09/30 05:32:39;;;;;;;21.75;6.18;;;;;;;;;;6303412;22;20098;-76
2022/09/30 05:35:08;;;;;;;44.05;5.75;;;;;;;;;;6302407;22;20341;-76
2022/09/30 05:37:35;;;;;;;146.90;9.38;;;;;;;;;;6302332;22;20023;-76
2022/09/30 05:40:08;;;;;;;159.57;10.35;;;;;;;;;;6276814;22;20090;-76
2022/09/30 05:42:35;;;;;;;143.73;9.98;;;;;;;;;;6302162;22;20016;-76
2022/09/30 05:45:09;;;;;;;110.68;9.23;;;;;;;;;;6302032;22;20020;-76
2022/09/30 05:47:37;;;;;;;123.72;10.45;;;;;;;;;;6302795;22;20022;-76
2022/09/30 05:50:10;;;;;;;119.40;9.38;;;;;;;;;;6302754;22;20102;-76
2022/09/30 05:52:38;;;;;;;67.85;7.93;;;;;;;;;;6301445;22;20344;-75
2022/09/30 05:55:05;;;;;;;32.80;7.13;;;;;;;;;;6302586;22;20098;-76
2022/09/30 05:57:38;;;;;;;73.00;9.70;;;;;;;;;;6302082;22;20390;-76
2022/09/30 06:00:06;;;;;;;35.35;7.10;;;;;;;;;;6302459;22;20403;-76
2022/09/30 06:02:40;;;;;;;47.35;7.68;;;;;;;;;;6301676;22;20654;-77
2022/09/30 06:05:08;;;;;;;58.17;7.50;;;;;;;;;;6302914;22;20104;-76
2022/09/30 06:07:36;;;;;;;49.33;6.93;;;;;;;;;;6301015;22;20058;-76
2022/09/30 06:10:11;;;;;;;124.20;9.95;;;;;;;;;;6302218;22;20106;-76
2022/09/30 06:12:38;;;;;;;22.67;6.40;;;;;;;;;;6273294;22;20023;-76
2022/09/30 06:15:12;;;;;;;22.83;7.85;;;;;;;;;;6301374;22;20019;-76
2022/09/30 06:17:41;;;;;;;23.73;6.97;;;;;;;;;;6301821;22;20122;-75
2022/09/30 06:20:09;;;;;;;26.35;7.15;;;;;;;;;;6302470;22;20098;-75
2022/09/30 06:22:43;;;;;;;14.05;5.18;;;;;;;;;;6301577;22;20050;-76
2022/09/30 06:25:17;;;;;;;10.93;5.43;;;;;;;;;;6298836;22;20026;-76
2022/09/30 06:27:58;;;;;;;9.20;5.20;;;;;;;;;;6303160;22;20030;-75
2022/09/30 06:30:25;;;;;;;11.13;4.95;;;;;;;;;;6303312;22;20380;-75
2022/09/30 06:33:01;;;;;;;10.82;4.18;;;;;;;;;;6305751;22;20019;-75
2022/09/30 06:35:28;;;;;;;10.98;5.38;;;;;;;;;;6304975;22;20563;-75
2022/09/30 06:37:55;;;;;;;14.35;6.05;;;;;;;;;;6278176;22;20019;-75
2022/09/30 06:40:29;;;;;;;11.70;5.72;;;;;;;;;;6305282;22;20110;-76
2022/09/30 06:43:00;;;;;;;11.10;5.47;;;;;;;;;;6306322;22;20027;-76
2022/09/30 06:45:28;;;;;;;10.50;5.68;;;;;;;;;;6277548;22;20062;-76
2022/09/30 06:48:03;;;;;;;15.02;6.28;;;;;;;;;;6305782;22;20015;-76
2022/09/30 06:50:37;;;;;;;14.88;6.75;;;;;;;;;;6304323;22;20033;-75
2022/09/30 06:53:07;;;;;;;14.05;5.93;;;;;;;;;;6305806;22;20080;-76
2022/09/30 06:55:38;;;;;;;15.95;5.22;;;;;;;;;;6305304;22;20253;-75
2022/09/30 06:58:15;;;;;;;10.75;5.18;;;;;;;;;;6305114;22;20527;-76
2022/09/30 07:00:43;;;;;;;9.02;4.82;;;;;;;;;;6305437;22;20065;-75
2022/09/30 07:03:23;;;;;;;16.20;4.78;;;;;;;;;;6305524;22;20027;-76
2022/09/30 07:05:56;;;;;;;12.15;5.70;;;;;;;;;;6278529;22;20094;-76
2022/09/30 07:08:31;;;;;;;12.73;4.63;;;;;;;;;;6280937;22;20457;-76
2022/09/30 07:10:59;;;;;;;11.00;5.47;;;;;;;;;;6304555;22;20051;-76
2022/09/30 07:13:27;;;;;;;19.55;5.75;;;;;;;;;;6304207;22;20027;-76
2022/09/30 07:16:00;;;;;;;9.45;4.85;;;;;;;;;;6304786;22;20399;-76
2022/09/30 07:18:28;;;;;;;8.23;4.68;;;;;;;;;;6304570;22;20107;-76
2022/09/30 07:20:56;;;;;;;9.68;6.07;;;;;;;;;;6303918;22;20134;-76
2022/09/30 07:23:30;;;;;;;20.25;8.15;;;;;;;;;;6254768;22;20101;-76
2022/09/30 07:26:06;;;;;;;10.82;5.65;;;;;;;;;;6303092;22;20029;-76
2022/09/30 07:28:42;;;;;;;10.85;6.00;;;;;;;;;;6304086;22;20513;-76
2022/09/30 07:31:15;;;;;;;8.20;5.50;;;;;;;;;;6304485;22;20029;-76
2022/09/30 07:34:06;;;;;;;8.98;5.05;;;;;;;;;;6305379;22;20015;-76
2022/09/30 07:36:35;;;;;;;10.77;6.47;;;;;;;;;;6305165;22;20461;-76
2022/09/30 07:39:10;;;;;;;9.73;6.20;;;;;;;;;;6304955;22;20049;-76
2022/09/30 07:41:39;;;;;;;14.85;7.45;;;;;;;;;;6304198;22;20084;-76
2022/09/30 07:44:13;;;;;;;12.50;7.45;;;;;;;;;;6303561;22;20019;-76
2022/09/30 07:46:42;;;;;;;11.73;6.75;;;;;;;;;;6303443;22;20088;-76
2022/09/30 07:49:23;;;;;;;14.45;8.00;;;;;;;;;;6278137;22;20019;-76
2022/09/30 07:51:52;;;;;;;10.43;6.63;;;;;;;;;;6303260;22;20059;-76
2022/09/30 07:54:27;;;;;;;11.75;6.88;;;;;;;;;;6303695;22;20046;-76
2022/09/30 07:56:58;;;;;;;10.40;6.88;;;;;;;;;;6303634;22;20094;-76
2022/09/30 07:59:38;;;;;;;9.88;5.85;;;;;;;;;;6301273;22;20403;-76
2022/09/30 08:02:06;;;;;;;11.98;6.30;;;;;;;;;;6303393;22;20026;-76
2022/09/30 08:04:41;;;;;;;8.63;6.13;;;;;;;;;;6302660;22;20419;-76
2022/09/30 08:07:11;;;;;;;9.23;5.85;;;;;;;;;;6301300;22;20802;-76
2022/09/30 08:09:45;;;;;;;8.52;6.00;;;;;;;;;;6302809;22;20559;-78
2022/09/30 08:12:12;;;;;;;12.50;7.15;;;;;;;;;;6303298;22;20047;-76
2022/09/30 08:14:39;;;;;;;7.68;6.07;;;;;;;;;;6302091;22;20130;-76
2022/09/30 08:17:13;;;;;;;8.93;6.05;;;;;;;;;;6301523;22;20025;-77
2022/09/30 08:19:43;;;;;;;9.27;6.72;;;;;;;;;;6275763;22;20054;-76
2022/09/30 08:22:12;;;;;;;7.88;5.65;;;;;;;;;;6302333;22;20034;-76
2022/09/30 08:25:00;;;;;;;7.00;4.93;;;;;;;;;;6302219;22;20027;-77
2022/09/30 08:27:34;;;;;;;9.18;5.70;;;;;;;;;;6302890;22;20026;-76
2022/09/30 08:30:09;;;;;;;10.82;5.32;;;;;;;;;;6301816;22;20555;-77
2022/09/30 08:32:36;;;;;;;;;;;;;;;;;;6302734;22;20050;-76
2022/09/30 08:35:03;;;;;;;7.68;4.93;;;;;;;;;;6303122;22;19922;-76
2022/09/30 08:37:38;;;;;;;6.63;4.05;;;;;;;;;;6302980;22;20090;-76
2022/09/30 08:40:05;;;;;;;6.40;3.55;;;;;;;;;;6276395;22;20042;-76
2022/09/30 08:42:32;;;;;;;4.80;3.20;;;;;;;;;;6302473;22;20027;-76
2022/09/30 08:45:21;;;;;;;6.20;3.35;;;;;;;;;;6302969;22;20023;-76
2022/09/30 08:47:51;;;;;;;6.30;2.90;;;;;;;;;;6274829;22;20069;-76
2022/09/30 08:51:03;;;;;;;12.52;2.88;;;;;;;;;;6301166;22;20026;-76
2022/09/30 08:53:33;;;;;;;4.10;2.65;;;;;;;;;;6206178;23;20023;-77
2022/09/30 08:56:07;;;;;;;4.20;2.30;;;;;;;;;;6183537;23;20407;-76
2022/09/30 08:58:40;;;;;;;3.95;2.35;;;;;;;;;;6258815;22;20395;-76
2022/09/30 09:01:23;;;;;;;2.35;2.13;;;;;;;;;;6302210;22;20106;-77
2022/09/30 09:03:51;;;;;;;3.08;2.47;;;;;;;;;;6301997;22;20027;-77
2022/09/30 09:06:37;;;;;;;6.75;2.40;;;;;;;;;;6300798;22;20468;-76
2022/09/30 09:09:24;;;;;;;3.17;2.67;;;;;;;;;;6301784;22;20460;-76
2022/09/30 09:12:13;;;;;;;3.20;2.45;;;;;;;;;;6301646;22;20110;-76
2022/09/30 09:14:43;;;;;;;3.50;2.22;;;;;;;;;;6302763;22;20391;-76
2022/09/30 09:17:55;;;;;;;3.45;2.33;;;;;;;;;;6302723;22;20022;-76
2022/09/30 09:20:47;;;;;;;3.35;2.42;;;;;;;;;;6207316;23;20017;-76
2022/09/30 09:23:22;;;;;;;3.60;2.30;;;;;;;;;;6207608;23;20020;-76
2022/09/30 09:25:55;;;;;;;4.18;2.35;;;;;;;;;;6271700;22;20026;-76
2022/09/30 09:28:39;;;;;;;2.08;1.88;;;;;;;;;;6301246;22;20023;-76
2022/09/30 09:31:13;;;;;;;3.38;2.53;;;;;;;;;;6303185;22;20023;-76
2022/09/30 09:33:47;;;;;;;2.70;2.25;;;;;;;;;;6303036;22;20015;-76
2022/09/30 09:36:20;;;;;;;2.53;2.22;;;;;;;;;;6302799;22;20023;-77
2022/09/30 09:38:55;;;;;;;3.42;2.03;;;;;;;;;;6300278;22;20069;-76
2022/09/30 09:41:40;;;;;;;2.70;1.83;;;;;;;;;;6302021;22;20023;-76
2022/09/30 09:44:20;;;;;;;3.72;2.05;;;;;;;;;;6302432;22;20019;-76
2022/09/30 09:47:04;;;;;;;3.38;2.30;;;;;;;;;;6301880;22;20025;-77
2022/09/30 09:49:39;;;;;;;3.05;1.85;;;;;;;;;;6275939;22;20392;-76
2022/09/30 09:52:12;;;;;;;2.35;1.80;;;;;;;;;;6303088;22;20033;-76
2022/09/30 09:54:41;;;;;;;2.83;1.85;;;;;;;;;;6274120;22;20098;-76
2022/09/30 09:57:17;;;;;;;2.25;1.77;;;;;;;;;;6302020;22;20069;-76
2022/09/30 09:59:57;;;;;;;2.20;1.73;;;;;;;;;;6300952;22;20102;-76
2022/09/30 10:02:31;;;;;;;3.17;2.08;;;;;;;;;;6302784;22;20027;-76
2022/09/30 10:05:00;;;;;;;2.92;2.03;;;;;;;;;;6301663;22;20100;-76
2022/09/30 10:07:28;;;;;;;2.65;1.83;;;;;;;;;;6302646;22;20134;-76
2022/09/30 10:10:20;;;;;;;3.67;1.92;;;;;;;;;;6302625;22;20019;-76
2022/09/30 10:12:53;;;;;;;2.28;1.85;;;;;;;;;;6302154;22;20042;-77
2022/09/30 10:15:28;;;;;;;3.15;1.80;;;;;;;;;;6302224;22;20027;-77
2022/09/30 10:17:56;;;;;;;2.28;1.67;;;;;;;;;;6301899;22;20061;-77
2022/09/30 10:20:27;;;;;;;3.47;1.83;;;;;;;;;;6301394;22;20023;-77
2022/09/30 10:23:01;;;;;;;;;;;;;;;;;;6276852;22;20046;-77
2022/09/30 10:25:35;;;;;;;1.88;1.60;;;;;;;;;;6267609;22;19919;-77
2022/09/30 10:28:21;;;;;;;2.42;1.80;;;;;;;;;;6270634;22;20518;-76
2022/09/30 10:30:52;;;;;;;4.93;2.20;;;;;;;;;;6270869;22;20020;-77
2022/09/30 10:33:29;;;;;;;2.80;1.80;;;;;;;;;;6269697;22;20475;-77
2022/09/30 10:36:05;;;;;;;3.30;1.73;;;;;;;;;;6271079;22;20481;-76
2022/09/30 10:38:46;;;;;;;2.03;1.70;;;;;;;;;;6269049;22;20022;-77
2022/09/30 10:41:20;;;;;;;4.05;1.70;;;;;;;;;;6271509;22;20098;-77
2022/09/30 10:43:57;;;;;;;3.00;2.00;;;;;;;;;;6269996;22;20024;-76
2022/09/30 10:46:37;;;;;;;3.08;2.00;;;;;;;;;;6270372;22;20461;-76
2022/09/30 10:49:23;;;;;;;3.97;1.95;;;;;;;;;;6269756;22;20031;-77
2022/09/30 10:51:50;;;;;;;3.65;1.75;;;;;;;;;;6270562;22;20143;-77
2022/09/30 10:54:39;;;;;;;2.72;1.73;;;;;;;;;;6270406;22;20015;-77
2022/09/30 10:57:14;;;;;;;3.78;1.73;;;;;;;;;;6270483;22;20099;-76
2022/09/30 10:59:48;;;;;;;2.75;1.80;;;;;;;;;;6270217;22;20050;-77
2022/09/30 11:02:18;;;;;;;4.90;2.17;;;;;;;;;;6270846;22;20130;-77
2022/09/30 11:04:58;;;;;;;5.25;2.17;;;;;;;;;;6270122;22;20382;-77
2022/09/30 11:07:44;;;;;;;4.55;1.75;;;;;;;;;;6270807;22;20054;-77
2022/09/30 11:10:34;;;;;;;5.10;2.00;;;;;;;;;;6270402;22;20510;-77
2022/09/30 11:13:10;;;;;;;5.05;2.47;;;;;;;;;;6270461;22;20030;-76
2022/09/30 11:15:56;;;;;;;2.72;2.22;;;;;;;;;;6268190;22;20091;-77
2022/09/30 11:18:29;;;;;;;3.28;1.95;;;;;;;;;;6270150;22;20077;-77
2022/09/30 11:21:25;;;;;;;2.78;1.92;;;;;;;;;;6269962;22;20415;-77
2022/09/30 11:24:08;;;;;;;2.13;1.90;;;;;;;;;;6271136;22;20522;-76
2022/09/30 11:26:41;;;;;;;;;;;;;;;;;;6296351;22;20458;-76
2022/09/30 11:29:18;;;;;;;3.58;1.88;;;;;;;;;;6275620;22;19958;-77
2022/09/30 11:32:11;;;;;;;1.70;1.58;;;;;;;;;;6276922;22;20068;-76
2022/09/30 11:35:24;;;;;;;3.67;2.00;;;;;;;;;;6277200;22;20027;-77
2022/09/30 11:38:07;;;;;;;3.03;2.15;;;;;;;;;;6208158;23;20024;-77
2022/09/30 11:40:59;;;;;;;5.15;2.05;;;;;;;;;;6208415;23;20577;-76
2022/09/30 11:43:44;;;;;;;2.80;2.10;;;;;;;;;;6282038;22;20179;-77
2022/09/30 11:46:23;;;;;;;2.95;1.90;;;;;;;;;;6303615;22;20084;-77
2022/09/30 11:48:51;;;;;;;3.20;1.70;;;;;;;;;;6301815;22;20049;-76
2022/09/30 11:51:41;;;;;;;2.85;1.95;;;;;;;;;;6302734;22;20025;-77
2022/09/30 11:54:17;;;;;;;2.88;2.05;;;;;;;;;;6302702;22;20145;-77
2022/09/30 11:56:55;;;;;;;3.55;1.90;;;;;;;;;;6301814;22;20098;-77
2022/09/30 11:59:34;;;;;;;3.40;1.90;;;;;;;;;;6302383;22;20029;-77
2022/09/30 12:02:31;;;;;;;2.75;1.90;;;;;;;;;;6303277;22;20063;-77
2022/09/30 12:05:10;;;;;;;2.97;1.95;;;;;;;;;;6301464;22;20385;-76
2022/09/30 12:07:47;;;;;;;2.50;1.75;;;;;;;;;;6302156;22;20102;-76
2022/09/30 12:10:34;;;;;;;2.05;1.85;;;;;;;;;;6302619;22;20102;-77
2022/09/30 12:13:26;;;;;;;3.58;1.63;;;;;;;;;;6302544;22;20098;-76
2022/09/30 12:15:55;;;;;;;2.17;1.77;;;;;;;;;;6303215;22;20399;-77
2022/09/30 12:18:32;;;;;;;1.95;1.30;;;;;;;;;;6301952;22;20503;-74
2022/09/30 12:21:01;;;;;;;2.90;1.70;;;;;;;;;;6302573;22;20357;-74
2022/09/30 12:23:39;;;;;;;2.58;1.83;;;;;;;;;;6302007;22;20126;-76
2022/09/30 12:26:14;;;;;;;3.22;1.60;;;;;;;;;;6268918;22;20016;-77
2022/09/30 12:31:41;;;;;;;1.48;1.38;;;;;;;;;;6270721;22;20051;-74
2022/09/30 12:34:19;;;;;;;3.72;1.77;;;;;;;;;;6269079;22;20015;-74
2022/09/30 12:37:06;;;;;;;1.60;1.42;;;;;;;;;;6271324;22;20402;-74
2022/09/30 12:39:53;;;;;;;1.55;1.40;;;;;;;;;;6270459;22;20024;-77
2022/09/30 12:42:28;;;;;;;3.35;1.45;;;;;;;;;;6271428;22;20110;-74
2022/09/30 12:45:20;;;;;;;2.97;1.40;;;;;;;;;;6271407;22;20020;-73
2022/09/30 12:47:56;;;;;;;2.38;1.38;;;;;;;;;;6269243;22;20019;-74
2022/09/30 12:50:33;;;;;;;2.13;1.50;;;;;;;;;;6270111;22;20098;-74
2022/09/30 12:53:09;;;;;;;2.08;1.27;;;;;;;;;;6272016;22;20099;-74
2022/09/30 12:55:44;;;;;;;3.60;1.30;;;;;;;;;;6271061;22;20468;-74
2022/09/30 12:58:31;;;;;;;1.20;1.10;;;;;;;;;;6272121;22;20015;-74
2022/09/30 13:01:07;;;;;;;2.47;1.30;;;;;;;;;;6271597;22;20047;-74
2022/09/30 13:03:45;;;;;;;2.13;1.40;;;;;;;;;;6270255;22;20030;-75
2022/09/30 13:06:14;;;;;;;2.33;1.50;;;;;;;;;;6271071;22;20102;-73
2022/09/30 13:09:04;;;;;;;2.67;1.30;;;;;;;;;;6271856;22;20106;-74
2022/09/30 13:11:36;;;;;;;6.20;1.55;;;;;;;;;;6271413;22;20098;-74
2022/09/30 13:14:16;;;;;;;1.67;1.30;;;;;;;;;;6270802;22;20051;-74
2022/09/30 13:17:01;;;;;;;1.95;1.33;;;;;;;;;;6270602;22;20020;-74
2022/09/30 13:19:39;;;;;;;1.73;1.20;;;;;;;;;;6270055;22;20059;-74
2022/09/30 13:22:23;;;;;;;4.05;1.20;;;;;;;;;;6271502;22;20028;-75
2022/09/30 13:25:03;;;;;;;3.83;1.63;;;;;;;;;;6270075;22;20094;-74
2022/09/30 13:27:45;;;;;;;1.60;1.20;;;;;;;;;;6240468;23;20550;-74
2022/09/30 13:30:19;;;;;;;2.42;1.25;;;;;;;;;;6240487;23;20024;-74
2022/09/30 13:32:47;;;;;;;2.50;1.92;;;;;;;;;;6239748;22;20099;-74
2022/09/30 13:35:31;;;;;;;2.88;1.75;;;;;;;;;;6238403;23;20099;-74
2022/09/30 13:38:14;;;;;;;1.55;1.23;;;;;;;;;;6238483;23;20055;-74
2022/09/30 13:40:50;;;;;;;2.75;1.45;;;;;;;;;;6239798;23;20030;-74
2022/09/30 13:43:37;;;;;;;3.72;1.80;;;;;;;;;;6239501;22;20495;-74
2022/09/30 13:46:21;;;;;;;1.50;1.40;;;;;;;;;;6239667;23;20479;-74
2022/09/30 13:48:54;;;;;;;4.40;1.33;;;;;;;;;;6239615;22;20020;-75
2022/09/30 13:51:29;;;;;;;3.15;1.50;;;;;;;;;;6240080;23;20020;-75
2022/09/30 13:53:59;;;;;;;3.03;1.60;;;;;;;;;;6239278;22;20063;-75
2022/09/30 13:56:33;;;;;;;3.00;1.60;;;;;;;;;;6239816;23;20095;-74
2022/09/30 13:59:34;;;;;;;2.17;1.80;;;;;;;;;;6238425;23;20023;-74
2022/09/30 14:02:33;;;;;;;2.45;1.77;;;;;;;;;;6223363;23;20107;-74
2022/09/30 14:05:14;;;;;;;2.67;1.33;;;;;;;;;;6234015;23;20110;-75
2022/09/30 14:08:06;;;;;;;5.32;1.80;;;;;;;;;;6236184;23;20103;-75
2022/09/30 14:10:55;;;;;;;5.47;1.60;;;;;;;;;;6236276;22;20028;-75
2022/09/30 14:13:36;;;;;;;1.88;1.30;;;;;;;;;;6235776;23;20567;-74
2022/09/30 14:16:06;;;;;;;4.50;1.60;;;;;;;;;;6236589;22;20024;-74
2022/09/30 14:18:57;;;;;;;1.77;1.60;;;;;;;;;;6236745;23;20071;-75
2022/09/30 14:21:27;;;;;;;4.35;1.52;;;;;;;;;;6237652;22;20024;-74
2022/09/30 14:24:03;;;;;;;2.38;1.60;;;;;;;;;;6235843;23;20020;-74
2022/09/30 14:26:45;;;;;;;3.35;1.80;;;;;;;;;;6252164;22;20023;-75
2022/09/30 14:29:33;;;;;;;5.15;1.85;;;;;;;;;;6268608;22;20027;-75
2022/09/30 14:32:01;;;;;;;6.50;2.17;;;;;;;;;;6268292;22;20042;-77
2022/09/30 14:34:35;;;;;;;3.97;1.83;;;;;;;;;;6268165;22;20102;-77
2022/09/30 14:37:03;;;;;;;4.95;1.80;;;;;;;;;;6268510;22;20019;-77
2022/09/30 14:39:30;;;;;;;;;;;;;;;;;;6268361;22;20026;-77
2022/09/30 14:42:04;;;;;;;2.90;1.80;;;;;;;;;;6267636;22;19919;-77
2022/09/30 14:44:38;;;;;;;1.98;1.65;;;;;;;;;;6267941;22;20027;-77
2022/09/30 14:47:14;;;;;;;2.08;1.70;;;;;;;;;;6267460;22;20116;-77
2022/09/30 14:49:49;;;;;;;7.25;2.25;;;;;;;;;;6265772;22;20531;-77
2022/09/30 14:52:34;;;;;;;2.83;1.85;;;;;;;;;;6269260;22;20030;-78
2022/09/30 14:55:24;;;;;;;3.80;2.08;;;;;;;;;;6269805;22;20031;-77
2022/09/30 14:57:52;;;;;;;5.75;2.38;;;;;;;;;;6270087;22;20028;-77
2022/09/30 15:00:28;;;;;;;2.50;2.10;;;;;;;;;;6270564;22;20024;-77
2022/09/30 15:02:55;;;;;;;3.63;2.30;;;;;;;;;;6270550;22;20023;-76
2022/09/30 15:05:23;;;;;;;6.57;2.50;;;;;;;;;;6268916;22;20468;-77
2022/09/30 15:07:56;;;;;;;4.30;2.40;;;;;;;;;;6268243;22;20102;-77
2022/09/30 15:10:24;;;;;;;3.17;2.47;;;;;;;;;;6268978;22;20056;-78
2022/09/30 15:12:59;;;;;;;2.92;2.47;;;;;;;;;;6269291;22;20115;-77
2022/09/30 15:15:32;;;;;;;8.02;2.63;;;;;;;;;;6268038;22;20071;-77
2022/09/30 15:18:24;;;;;;;5.07;2.50;;;;;;;;;;6270338;22;20106;-77
2022/09/30 15:21:00;;;;;;;6.30;2.33;;;;;;;;;;6268050;22;20290;-77
2022/09/30 15:23:30;;;;;;;5.25;2.58;;;;;;;;;;6269649;22;20098;-78
2022/09/30 15:26:11;;;;;;;6.10;3.00;;;;;;;;;;6278851;22;20126;-77
2022/09/30 15:28:38;;;;;;;3.08;2.25;;;;;;;;;;6299563;22;20098;-77
2022/09/30 15:31:18;;;;;;;2.55;2.35;;;;;;;;;;6300956;22;20498;-77
2022/09/30 15:33:46;;;;;;;3.45;2.60;;;;;;;;;;6272463;22;20050;-78
2022/09/30 15:36:20;;;;;;;2.80;2.33;;;;;;;;;;6275004;22;20023;-78